Time;durP1;ratioP1;P1;durP2;ratioP2;P2;SDS_P1;SDS_P2;PMS_P1;PMS_P2;Temp;Humidity;BMP_temperature;BMP_pressure;BME280_temperature;BME280_humidity;BME280_pressure;Samples;Min_cycle;Max_cycle;Signal;HPM_P1;HPM_P2
2023/03/26 00:01:16;;;;;;;1999.90;999.90;;;22.10;99.90;;;;;;5033306;28;20029;-71
2023/03/26 00:03:45;;;;;;;1999.90;999.90;;;22.20;99.90;;;;;;5033143;28;20038;-73
2023/03/26 00:06:16;;;;;;;1999.90;999.90;;;22.20;99.90;;;;;;5038936;28;20029;-72
2023/03/26 00:08:45;;;;;;;1999.90;999.90;;;22.30;99.90;;;;;;5031283;28;20499;-70
2023/03/26 00:11:14;;;;;;;1999.90;999.90;;;22.30;99.90;;;;;;5037220;28;20036;-71
2023/03/26 00:13:42;;;;;;;1999.90;999.90;;;22.40;99.90;;;;;;5036489;28;20025;-71
2023/03/26 00:16:12;;;;;;;1999.90;999.90;;;22.50;99.90;;;;;;5031607;28;20104;-71
2023/03/26 00:18:41;;;;;;;1999.90;999.90;;;22.50;99.90;;;;;;5032547;28;20033;-71
2023/03/26 00:21:13;;;;;;;1999.90;999.90;;;22.70;99.90;;;;;;5032001;28;20057;-71
2023/03/26 00:23:41;;;;;;;1999.90;999.90;;;22.90;99.90;;;;;;5034260;28;20060;-72
2023/03/26 00:26:10;;;;;;;1999.90;999.90;;;23.10;99.90;;;;;;5035816;28;20033;-71
2023/03/26 00:28:39;;;;;;;1999.90;999.90;;;23.30;99.90;;;;;;5037858;28;20452;-71
2023/03/26 00:31:09;;;;;;;1999.90;999.90;;;23.50;99.90;;;;;;5037639;28;20046;-72
2023/03/26 00:33:37;;;;;;;1999.90;999.90;;;23.70;99.90;;;;;;5031732;28;20021;-71
2023/03/26 00:36:08;;;;;;;1999.90;999.90;;;24.00;99.90;;;;;;5035569;28;20098;-71
2023/03/26 00:38:37;;;;;;;1999.90;999.90;;;24.30;99.90;;;;;;5027879;28;20024;-71
2023/03/26 00:41:07;;;;;;;1999.90;999.90;;;24.70;99.90;;;;;;5030261;28;20036;-71
2023/03/26 00:43:35;;;;;;;1999.90;999.90;;;25.30;99.90;;;;;;5030668;28;20091;-73
2023/03/26 00:46:03;;;;;;;1999.90;999.90;;;25.90;99.90;;;;;;5033789;28;20048;-73
2023/03/26 00:48:33;;;;;;;1999.90;999.90;;;26.70;99.90;;;;;;5036498;28;20033;-72
2023/03/26 00:51:00;;;;;;;1999.90;999.90;;;27.20;99.90;;;;;;5033821;28;20072;-72
2023/03/26 00:53:27;;;;;;;1999.90;999.90;;;27.60;99.90;;;;;;5033107;28;20064;-72
2023/03/26 00:55:59;;;;;;;1999.90;999.90;;;28.10;99.90;;;;;;5038388;28;20519;-72
2023/03/26 00:58:28;;;;;;;1999.90;999.90;;;28.70;99.90;;;;;;5028400;28;20025;-72
2023/03/26 01:00:58;;;;;;;1999.90;999.90;;;29.50;99.90;;;;;;5030408;28;20037;-72
2023/03/26 01:03:32;;;;;;;1999.90;999.90;;;30.00;98.10;;;;;;5028669;28;20033;-72
2023/03/26 01:06:06;;;;;;;1999.90;999.90;;;30.50;99.20;;;;;;5031774;28;20027;-72
2023/03/26 01:08:45;;;;;;;1999.90;999.90;;;30.90;98.90;;;;;;5029434;28;20044;-71
2023/03/26 01:11:14;;;;;;;1999.90;999.90;;;31.10;96.90;;;;;;5032696;28;20041;-72
2023/03/26 01:13:50;;;;;;;1999.90;999.90;;;30.70;96.30;;;;;;5031109;28;20026;-71
2023/03/26 01:16:28;;;;;;;;;;;30.60;96.60;;;;;;5043788;28;20024;-71
2023/03/26 01:18:57;;;;;;;1999.90;999.90;;;30.60;97.80;;;;;;5028926;28;19972;-71
2023/03/26 01:21:29;;;;;;;1999.90;999.90;;;31.00;98.50;;;;;;5029959;28;20056;-71
2023/03/26 01:24:04;;;;;;;1999.90;999.90;;;31.20;95.50;;;;;;5026998;28;20531;-71
2023/03/26 01:26:36;;;;;;;1999.90;999.90;;;31.40;97.30;;;;;;5023992;28;20096;-71
2023/03/26 01:29:07;;;;;;;1999.90;999.90;;;31.60;96.10;;;;;;5033948;28;20507;-71
2023/03/26 01:31:59;;;;;;;1999.90;999.90;;;31.60;95.50;;;;;;5040169;28;20112;-71
2023/03/26 01:34:42;;;;;;;1999.90;999.90;;;31.50;96.10;;;;;;5028359;28;20171;-72
2023/03/26 01:37:29;;;;;;;1999.90;999.90;;;31.50;96.50;;;;;;5027630;28;20391;-70
2023/03/26 01:40:05;;;;;;;1999.90;999.90;;;31.30;95.30;;;;;;5032611;28;20033;-71
2023/03/26 01:42:51;;;;;;;1999.90;999.90;;;30.60;95.20;;;;;;5034841;28;20097;-70
2023/03/26 01:45:20;;;;;;;;;;;30.50;95.70;;;;;;5034562;28;20044;-71
2023/03/26 01:47:48;;;;;;;1999.90;999.90;;;30.00;96.40;;;;;;5025243;28;19917;-71
2023/03/26 01:50:15;;;;;;;1999.90;999.90;;;29.30;96.90;;;;;;5029351;28;20056;-72
2023/03/26 01:52:43;;;;;;;1999.90;999.90;;;28.80;97.50;;;;;;5029282;28;20033;-72
2023/03/26 01:55:11;;;;;;;1999.90;999.90;;;28.80;98.10;;;;;;5028146;28;20022;-72
2023/03/26 01:58:09;;;;;;;1999.90;999.90;;;29.00;97.80;;;;;;5038091;28;20042;-70
2023/03/26 02:00:46;;;;;;;1999.90;999.90;;;29.00;98.40;;;;;;5038063;28;20036;-70
2023/03/26 02:03:43;;;;;;;1999.90;999.90;;;28.50;98.90;;;;;;5033552;28;20040;-70
2023/03/26 02:06:29;;;;;;;1999.90;999.90;;;29.00;99.00;;;;;;5037924;28;20120;-69
2023/03/26 02:09:03;;;;;;;;;;;29.90;99.10;;;;;;5023755;28;20029;-70
2023/03/26 02:11:30;;;;;;;1999.90;999.90;;;30.30;96.90;;;;;;5036884;28;19921;-70
2023/03/26 02:13:58;;;;;;;1999.90;999.90;;;29.60;96.20;;;;;;5034945;28;20403;-70
2023/03/26 02:16:25;;;;;;;1999.90;999.90;;;29.00;97.10;;;;;;5039103;28;20040;-71
2023/03/26 02:18:54;;;;;;;1999.90;999.90;;;28.50;97.40;;;;;;5038708;28;20029;-70
2023/03/26 02:21:24;;;;;;;1999.90;999.90;;;28.10;98.20;;;;;;5038493;28;20033;-71
2023/03/26 02:24:01;;;;;;;1999.90;999.90;;;27.80;98.80;;;;;;5039571;28;20457;-71
2023/03/26 02:26:31;;;;;;;1999.90;999.90;;;27.50;98.90;;;;;;5041142;28;20033;-69
2023/03/26 02:29:00;;;;;;;1999.90;999.90;;;27.20;99.20;;;;;;5039607;28;20051;-71
2023/03/26 02:31:28;;;;;;;1999.90;999.90;;;26.90;99.40;;;;;;5037340;28;20033;-71
2023/03/26 02:33:56;;;;;;;1999.90;999.90;;;26.50;99.90;;;;;;5035687;28;20031;-70
2023/03/26 02:36:26;;;;;;;1999.90;999.90;;;26.20;99.90;;;;;;5042852;28;20107;-71
2023/03/26 02:38:56;;;;;;;1999.90;999.90;;;25.90;99.90;;;;;;5038139;28;20471;-71
2023/03/26 02:41:24;;;;;;;1999.90;999.90;;;25.70;99.90;;;;;;5032895;28;20112;-71
2023/03/26 02:43:51;;;;;;;1999.90;999.90;;;25.50;99.90;;;;;;5040813;28;20036;-70
2023/03/26 02:46:19;;;;;;;1999.90;999.90;;;25.40;99.90;;;;;;5032573;28;20038;-71
2023/03/26 02:48:46;;;;;;;1999.90;999.90;;;25.30;99.90;;;;;;5030236;28;20112;-70
2023/03/26 02:51:17;;;;;;;1999.90;999.90;;;25.30;99.90;;;;;;5035496;28;20537;-70
2023/03/26 02:53:44;;;;;;;1999.90;999.90;;;25.30;99.90;;;;;;5030463;28;20034;-72
2023/03/26 02:56:11;;;;;;;1999.90;999.90;;;25.40;99.90;;;;;;5032163;28;20516;-72
2023/03/26 02:58:39;;;;;;;1999.90;999.90;;;25.40;99.90;;;;;;5032588;28;20116;-72
2023/03/26 03:01:06;;;;;;;1999.90;999.90;;;25.40;99.90;;;;;;5038956;28;20049;-73
2023/03/26 03:03:35;;;;;;;1999.90;999.90;;;25.30;99.90;;;;;;5029042;28;20036;-72
2023/03/26 03:06:02;;;;;;;1999.90;999.90;;;25.30;99.90;;;;;;5030827;28;20037;-71
2023/03/26 03:08:30;;;;;;;1999.90;999.90;;;25.30;99.90;;;;;;5031867;28;20466;-72
2023/03/26 03:11:06;;;;;;;1999.90;999.90;;;25.30;99.90;;;;;;5034294;28;20393;-72
2023/03/26 03:13:34;;;;;;;1999.90;999.90;;;25.20;99.90;;;;;;5034438;28;20105;-71
2023/03/26 03:16:01;;;;;;;1999.90;999.90;;;25.30;99.90;;;;;;5031620;28;20416;-70
2023/03/26 03:18:28;;;;;;;1999.90;999.90;;;25.20;99.90;;;;;;5031686;28;20491;-69
2023/03/26 03:20:56;;;;;;;1999.90;999.90;;;25.30;99.90;;;;;;5034251;28;20029;-71
2023/03/26 03:23:23;;;;;;;1999.90;999.90;;;25.30;99.90;;;;;;5030035;28;20030;-71
2023/03/26 03:25:51;;;;;;;1999.90;999.90;;;25.30;99.90;;;;;;5033199;28;20071;-71
2023/03/26 03:28:18;;;;;;;1999.90;999.90;;;25.30;99.90;;;;;;5027927;28;21641;-70
2023/03/26 03:30:47;;;;;;;1999.90;999.90;;;25.30;99.90;;;;;;5033250;28;20102;-72
2023/03/26 03:33:14;;;;;;;1999.90;999.90;;;25.30;99.90;;;;;;5026679;28;20617;-72
2023/03/26 03:35:44;;;;;;;1999.90;999.90;;;25.30;99.90;;;;;;5025482;28;20133;-72
2023/03/26 03:38:12;;;;;;;1999.90;999.90;;;25.30;99.90;;;;;;5034914;28;20068;-71
2023/03/26 03:40:39;;;;;;;1999.90;999.90;;;25.40;99.90;;;;;;5039162;28;20658;-72
2023/03/26 03:43:06;;;;;;;1999.90;999.90;;;25.40;99.90;;;;;;5040612;28;20025;-72
2023/03/26 03:45:34;;;;;;;1999.90;999.90;;;25.50;99.90;;;;;;5037046;28;20537;-71
2023/03/26 03:48:03;;;;;;;1999.90;999.90;;;25.60;99.90;;;;;;5037564;28;20136;-72
2023/03/26 03:50:30;;;;;;;1999.90;999.90;;;25.70;99.90;;;;;;5040606;28;20400;-71
2023/03/26 03:52:58;;;;;;;1999.90;999.90;;;25.60;99.90;;;;;;5039764;28;20361;-71
2023/03/26 03:55:26;;;;;;;1999.90;999.90;;;25.70;99.90;;;;;;5039689;28;20037;-72
2023/03/26 03:57:55;;;;;;;1999.90;999.90;;;25.70;99.90;;;;;;5030399;28;20039;-72
2023/03/26 04:00:23;;;;;;;1999.90;999.90;;;25.80;99.90;;;;;;5036040;28;20143;-73
2023/03/26 04:02:53;;;;;;;1999.90;999.90;;;25.70;99.90;;;;;;5034144;28;20025;-75
2023/03/26 04:05:20;;;;;;;1999.90;999.90;;;25.60;99.90;;;;;;5034709;28;20028;-73
2023/03/26 04:07:49;;;;;;;1999.90;999.90;;;25.50;99.90;;;;;;5018435;28;20510;-74
2023/03/26 04:10:16;;;;;;;1999.90;999.90;;;25.40;99.90;;;;;;5025817;28;20492;-72
2023/03/26 04:12:44;;;;;;;1999.90;999.90;;;25.30;99.90;;;;;;5022048;28;20033;-73
2023/03/26 04:15:11;;;;;;;1999.90;999.90;;;25.20;99.90;;;;;;5032078;28;20033;-70
2023/03/26 04:17:41;;;;;;;1999.90;999.90;;;25.00;99.90;;;;;;5030310;28;20034;-70
2023/03/26 04:20:13;;;;;;;1999.90;999.90;;;24.80;99.90;;;;;;5038230;28;20033;-71
2023/03/26 04:22:43;;;;;;;1999.90;999.90;;;24.70;99.90;;;;;;5021013;28;20035;-72
2023/03/26 04:25:14;;;;;;;1999.90;999.90;;;24.60;99.90;;;;;;5032207;28;20091;-72
2023/03/26 04:27:42;;;;;;;1999.90;999.90;;;24.70;99.90;;;;;;5032803;28;20025;-73
2023/03/26 04:30:16;;;;;;;1999.90;999.90;;;24.80;99.90;;;;;;5034992;28;20037;-73
2023/03/26 04:32:44;;;;;;;1999.90;999.90;;;24.80;99.90;;;;;;5031520;28;20030;-72
2023/03/26 04:35:17;;;;;;;1999.90;999.90;;;24.80;99.90;;;;;;5040906;28;20026;-72
2023/03/26 04:37:45;;;;;;;1999.90;999.90;;;24.80;99.90;;;;;;5034878;28;20080;-72
2023/03/26 04:40:19;;;;;;;1999.90;999.90;;;24.70;99.90;;;;;;5032373;28;20023;-73
2023/03/26 04:42:46;;;;;;;1999.90;999.90;;;24.70;99.90;;;;;;5026686;28;20076;-72
2023/03/26 04:45:16;;;;;;;1999.90;999.90;;;24.70;99.90;;;;;;5028153;28;20041;-72
2023/03/26 04:47:45;;;;;;;1999.90;999.90;;;24.60;99.90;;;;;;5027048;28;20041;-72
2023/03/26 04:50:12;;;;;;;1999.90;999.90;;;24.60;99.90;;;;;;5026556;28;20039;-72
2023/03/26 04:52:40;;;;;;;1999.90;999.90;;;24.70;99.90;;;;;;5026699;28;20047;-71
2023/03/26 04:55:19;;;;;;;1999.90;999.90;;;24.70;99.90;;;;;;5036971;28;20033;-72
2023/03/26 04:57:49;;;;;;;1999.90;999.90;;;24.70;99.90;;;;;;5026395;28;20034;-72
2023/03/26 05:00:19;;;;;;;1999.90;999.90;;;24.70;99.90;;;;;;5026470;28;20045;-72
2023/03/26 05:02:49;;;;;;;1999.90;999.90;;;24.70;99.90;;;;;;5040553;28;20110;-71
2023/03/26 05:05:17;;;;;;;1999.90;999.90;;;24.70;99.90;;;;;;5035555;28;20071;-71
2023/03/26 05:07:45;;;;;;;1999.90;999.90;;;24.70;99.90;;;;;;5036667;28;20797;-72
2023/03/26 05:10:16;;;;;;;1999.90;999.90;;;24.80;99.90;;;;;;5029920;28;20037;-72
2023/03/26 05:12:43;;;;;;;1999.90;999.90;;;24.80;99.90;;;;;;5019944;28;20060;-73
2023/03/26 05:15:13;;;;;;;1999.90;999.90;;;24.80;99.90;;;;;;5023823;28;20029;-73
2023/03/26 05:17:40;;;;;;;1999.90;999.90;;;24.70;99.90;;;;;;5020562;28;20029;-73
2023/03/26 05:20:19;;;;;;;1999.90;999.90;;;24.60;99.90;;;;;;5023277;28;20036;-72
2023/03/26 05:22:48;;;;;;;1999.90;999.90;;;24.50;99.90;;;;;;5030153;28;20033;-73
2023/03/26 05:25:17;;;;;;;1999.90;999.90;;;24.50;99.90;;;;;;5033784;28;20084;-73
2023/03/26 05:27:44;;;;;;;1999.90;999.90;;;24.40;99.90;;;;;;5034124;28;20017;-72
2023/03/26 05:30:17;;;;;;;1999.90;999.90;;;24.40;99.90;;;;;;5034817;28;20052;-72
2023/03/26 05:32:47;;;;;;;1999.90;999.90;;;24.40;99.90;;;;;;5032814;28;20501;-72
2023/03/26 05:35:18;;;;;;;1999.90;999.90;;;24.40;99.90;;;;;;5036120;28;20112;-72
2023/03/26 05:37:46;;;;;;;1999.90;999.90;;;24.40;99.90;;;;;;5028531;28;20036;-73
2023/03/26 05:40:15;;;;;;;1999.90;999.90;;;24.50;99.90;;;;;;5034643;28;20036;-72
2023/03/26 05:42:44;;;;;;;1999.90;999.90;;;24.50;99.90;;;;;;5035403;28;20549;-72
2023/03/26 05:45:13;;;;;;;1999.90;999.90;;;24.50;99.90;;;;;;5040516;28;20033;-73
2023/03/26 05:47:40;;;;;;;1999.90;999.90;;;24.50;99.90;;;;;;5031078;28;20048;-72
2023/03/26 05:50:09;;;;;;;1999.90;999.90;;;24.50;99.90;;;;;;5034365;28;20041;-73
2023/03/26 05:52:36;;;;;;;1999.90;999.90;;;24.50;99.90;;;;;;5033230;28;20048;-73
2023/03/26 05:55:04;;;;;;;1999.90;999.90;;;24.50;99.90;;;;;;5039501;28;20033;-71
2023/03/26 05:57:32;;;;;;;1999.90;999.90;;;24.50;99.90;;;;;;5036626;28;20053;-71
2023/03/26 05:59:59;;;;;;;1999.90;999.90;;;24.50;99.90;;;;;;5037750;28;20516;-71
2023/03/26 06:02:28;;;;;;;1999.90;999.90;;;24.50;99.90;;;;;;5041556;28;20030;-72
2023/03/26 06:04:55;;;;;;;1999.90;999.90;;;24.60;99.90;;;;;;5039289;28;20033;-72
2023/03/26 06:07:23;;;;;;;1999.90;999.90;;;24.60;99.90;;;;;;5037359;28;20060;-71
2023/03/26 06:09:50;;;;;;;1999.90;999.90;;;24.70;99.90;;;;;;5034670;28;20037;-72
2023/03/26 06:12:18;;;;;;;1999.90;999.90;;;24.70;99.90;;;;;;5032555;28;20116;-72
2023/03/26 06:14:46;;;;;;;1999.90;999.90;;;24.80;99.90;;;;;;5037274;28;20111;-71
2023/03/26 06:17:14;;;;;;;1999.90;999.90;;;24.90;99.90;;;;;;5032470;28;20033;-72
2023/03/26 06:19:41;;;;;;;1999.90;999.90;;;24.90;99.90;;;;;;5032998;28;20026;-72
2023/03/26 06:22:09;;;;;;;1999.90;999.90;;;24.90;99.90;;;;;;5030310;28;20045;-72
2023/03/26 06:24:36;;;;;;;1999.90;999.90;;;24.90;99.90;;;;;;5028871;28;20126;-72
2023/03/26 06:27:04;;;;;;;1999.90;999.90;;;24.90;99.90;;;;;;5034591;28;20021;-73
2023/03/26 06:29:31;;;;;;;1999.90;999.90;;;24.80;99.90;;;;;;5036015;28;20403;-70
2023/03/26 06:31:59;;;;;;;1999.90;999.90;;;24.70;99.90;;;;;;5032037;28;20052;-72
2023/03/26 06:34:26;;;;;;;1999.90;999.90;;;24.60;99.90;;;;;;5027269;28;20388;-72
2023/03/26 06:36:53;;;;;;;1999.90;999.90;;;24.60;99.90;;;;;;5034169;28;20087;-71
2023/03/26 06:39:21;;;;;;;1999.90;999.90;;;24.50;99.90;;;;;;5035300;28;20122;-71
2023/03/26 06:41:48;;;;;;;1999.90;999.90;;;24.50;99.90;;;;;;5033577;28;20151;-72
2023/03/26 06:44:15;;;;;;;1999.90;999.90;;;24.50;99.90;;;;;;5031238;28;20029;-73
2023/03/26 06:46:43;;;;;;;1999.90;999.90;;;24.40;99.90;;;;;;5018978;28;20400;-72
2023/03/26 06:49:10;;;;;;;1999.90;999.90;;;24.30;99.90;;;;;;5019190;28;20025;-72
2023/03/26 06:51:39;;;;;;;1999.90;999.90;;;24.20;99.90;;;;;;5027143;28;20033;-72
2023/03/26 06:54:07;;;;;;;1999.90;999.90;;;24.20;99.90;;;;;;5031528;28;20025;-72
2023/03/26 06:56:34;;;;;;;1999.90;999.90;;;24.20;99.90;;;;;;5040636;28;20029;-73
2023/03/26 06:59:01;;;;;;;1999.90;999.90;;;24.20;99.90;;;;;;5033254;28;20036;-72
2023/03/26 07:01:29;;;;;;;1999.90;999.90;;;24.20;99.90;;;;;;5031712;28;20041;-73
2023/03/26 07:03:57;;;;;;;1999.90;999.90;;;24.20;99.90;;;;;;5038015;28;20112;-71
2023/03/26 07:06:24;;;;;;;1999.90;999.90;;;24.20;99.90;;;;;;5038499;28;20055;-72
2023/03/26 07:08:54;;;;;;;1999.90;999.90;;;24.20;99.90;;;;;;5040873;28;20036;-73
2023/03/26 07:11:24;;;;;;;1999.90;999.90;;;24.20;99.90;;;;;;5036489;28;20049;-72
2023/03/26 07:13:52;;;;;;;1999.90;999.90;;;24.20;99.90;;;;;;5035795;28;20052;-72
2023/03/26 07:16:19;;;;;;;1999.90;999.90;;;24.10;99.90;;;;;;5037020;28;20565;-70
2023/03/26 07:18:47;;;;;;;1999.90;999.90;;;24.10;99.90;;;;;;5028995;28;20044;-72
2023/03/26 07:21:15;;;;;;;1999.90;999.90;;;24.00;99.90;;;;;;5038026;28;20514;-71
2023/03/26 07:23:42;;;;;;;1999.90;999.90;;;23.90;99.90;;;;;;5023337;28;20030;-71
2023/03/26 07:26:39;;;;;;;1999.90;999.90;;;23.80;99.90;;;;;;5032945;28;20070;-72
2023/03/26 07:29:05;;;;;;;;;;;23.70;99.90;;;;;;5036697;28;20041;-72
2023/03/26 07:32:04;;;;;;;1999.90;999.90;;;23.70;99.90;;;;;;5038894;28;20323;-73
2023/03/26 07:34:40;;;;;;;1999.90;999.90;;;23.60;99.90;;;;;;5030473;28;20073;-71
2023/03/26 07:37:29;;;;;;;1999.90;999.90;;;23.70;99.90;;;;;;5029867;28;20037;-72
2023/03/26 07:40:21;;;;;;;1999.90;999.90;;;23.60;99.90;;;;;;5034375;28;20125;-73
2023/03/26 07:43:21;;;;;;;1999.90;999.90;;;23.60;99.90;;;;;;5029954;28;20045;-72
2023/03/26 07:45:49;;;;;;;1999.90;999.90;;;23.50;99.90;;;;;;5035067;28;20045;-73
2023/03/26 07:48:28;;;;;;;1999.90;999.90;;;23.50;99.90;;;;;;5036066;28;20116;-72
2023/03/26 07:50:56;;;;;;;1999.90;999.90;;;23.50;99.90;;;;;;5039623;28;20492;-73
2023/03/26 07:53:24;;;;;;;1999.90;999.90;;;23.50;99.90;;;;;;5032686;28;20033;-72
2023/03/26 07:56:03;;;;;;;1999.90;999.90;;;23.40;99.90;;;;;;5035066;28;20030;-73
2023/03/26 07:58:59;;;;;;;1999.90;999.90;;;23.40;99.90;;;;;;5033907;28;20086;-72
2023/03/26 08:01:49;;;;;;;1999.90;999.90;;;23.40;99.90;;;;;;5033932;28;20036;-72
2023/03/26 08:04:40;;;;;;;1999.90;999.90;;;23.30;99.90;;;;;;5023831;28;20018;-72
2023/03/26 08:07:14;;;;;;;1999.90;999.90;;;23.30;99.90;;;;;;5019551;28;20499;-73
2023/03/26 08:09:55;;;;;;;1999.90;999.90;;;23.30;99.90;;;;;;5031915;28;20032;-73
2023/03/26 08:12:31;;;;;;;1999.90;999.90;;;23.20;99.90;;;;;;5028147;28;20095;-72
2023/03/26 08:15:32;;;;;;;1999.90;999.90;;;23.20;99.90;;;;;;5032037;28;20021;-72
2023/03/26 08:18:09;;;;;;;1999.90;999.90;;;23.20;99.90;;;;;;5024511;28;20034;-72
2023/03/26 08:20:48;;;;;;;1999.90;999.90;;;23.20;99.90;;;;;;5028559;28;20024;-72
2023/03/26 08:23:22;;;;;;;1999.90;999.90;;;23.10;99.90;;;;;;5028130;28;20040;-73
2023/03/26 08:26:13;;;;;;;1999.90;999.90;;;23.10;99.90;;;;;;5029270;28;20043;-71
2023/03/26 08:29:09;;;;;;;1999.90;999.90;;;23.10;99.90;;;;;;5028579;28;20044;-72
2023/03/26 08:31:42;;;;;;;1999.90;999.90;;;23.10;99.90;;;;;;5025751;28;20159;-72
2023/03/26 08:34:12;;;;;;;1999.90;999.90;;;23.00;99.90;;;;;;5030054;28;20029;-71
2023/03/26 08:36:40;;;;;;;1999.90;999.90;;;23.00;99.90;;;;;;5028987;28;20025;-72
2023/03/26 08:39:07;;;;;;;1999.90;999.90;;;23.00;99.90;;;;;;5028278;28;20042;-72
2023/03/26 08:41:59;;;;;;;1999.90;999.90;;;23.00;99.90;;;;;;5030249;28;20052;-72
2023/03/26 08:44:32;;;;;;;1999.90;999.90;;;22.90;99.90;;;;;;5033497;28;20035;-73
2023/03/26 08:47:18;;;;;;;1999.90;999.90;;;22.90;99.90;;;;;;5026357;28;20085;-73
2023/03/26 08:50:03;;;;;;;1999.90;999.90;;;22.90;99.90;;;;;;5032010;28;20041;-71
2023/03/26 08:52:58;;;;;;;1999.90;999.90;;;22.90;99.90;;;;;;5029633;28;20055;-71
2023/03/26 08:55:40;;;;;;;1999.90;999.90;;;22.90;99.90;;;;;;5031948;28;20025;-72
2023/03/26 08:58:48;;;;;;;1999.90;999.90;;;22.80;99.90;;;;;;5035345;28;20488;-72
2023/03/26 09:01:21;;;;;;;1999.90;999.90;;;22.80;99.90;;;;;;5035569;28;20034;-72
2023/03/26 09:03:55;;;;;;;1999.90;999.90;;;22.80;99.90;;;;;;5029398;28;20037;-72
2023/03/26 09:06:52;;;;;;;1999.90;999.90;;;22.70;99.90;;;;;;5030568;28;20431;-72
2023/03/26 09:09:35;;;;;;;1999.90;999.90;;;22.70;99.90;;;;;;5025705;28;20017;-72
2023/03/26 09:12:11;;;;;;;1999.90;999.90;;;22.70;99.90;;;;;;5026557;28;20072;-73
2023/03/26 09:15:15;;;;;;;1999.90;999.90;;;22.70;99.90;;;;;;5035158;28;20028;-73
2023/03/26 09:17:54;;;;;;;1999.90;999.90;;;22.60;99.90;;;;;;5032044;28;20029;-74
2023/03/26 09:20:44;;;;;;;1999.90;999.90;;;22.60;99.90;;;;;;5031538;28;20028;-72
2023/03/26 09:23:27;;;;;;;1999.90;999.90;;;22.50;99.90;;;;;;5034827;28;20025;-72
2023/03/26 09:26:10;;;;;;;1999.90;999.90;;;22.40;99.90;;;;;;5021516;28;20025;-75
2023/03/26 09:28:49;;;;;;;1999.90;999.90;;;22.30;99.90;;;;;;5029696;28;20044;-72
2023/03/26 09:31:28;;;;;;;1999.90;999.90;;;22.20;99.90;;;;;;5022912;28;20067;-73
2023/03/26 09:34:38;;;;;;;1999.90;999.90;;;22.10;99.90;;;;;;5027691;28;20029;-74
2023/03/26 09:37:37;;;;;;;1999.90;999.90;;;22.10;99.90;;;;;;5018198;28;20079;-73
2023/03/26 09:40:28;;;;;;;1999.90;999.90;;;22.00;99.90;;;;;;5034949;28;20042;-73
2023/03/26 09:43:32;;;;;;;1999.90;999.90;;;21.90;99.90;;;;;;5024649;28;20067;-72
2023/03/26 09:46:11;;;;;;;1999.90;999.90;;;21.80;99.90;;;;;;5028513;28;20140;-74
2023/03/26 09:48:52;;;;;;;1999.90;999.90;;;21.80;99.90;;;;;;5033619;28;20029;-74
2023/03/26 09:51:41;;;;;;;1999.90;999.90;;;21.70;99.90;;;;;;5026275;28;20045;-73
2023/03/26 09:54:32;;;;;;;1999.90;999.90;;;21.70;99.90;;;;;;5025948;28;20409;-72
2023/03/26 09:57:18;;;;;;;1999.90;999.90;;;21.70;99.90;;;;;;5026432;28;20063;-72
2023/03/26 10:00:03;;;;;;;1999.90;999.90;;;21.60;99.90;;;;;;5027244;28;20744;-73
2023/03/26 10:02:49;;;;;;;1999.90;999.90;;;21.50;99.90;;;;;;5022973;28;20163;-73
2023/03/26 10:05:30;;;;;;;1999.90;999.90;;;21.50;99.90;;;;;;5026153;28;20038;-72
2023/03/26 10:08:40;;;;;;;1999.90;999.90;;;21.40;99.90;;;;;;5027846;28;20088;-71
2023/03/26 10:11:14;;;;;;;1999.90;999.90;;;21.40;99.90;;;;;;5021748;28;20029;-72
2023/03/26 10:14:06;;;;;;;1999.90;999.90;;;21.30;99.90;;;;;;5036274;28;20530;-72
2023/03/26 10:17:18;;;;;;;1999.90;999.90;;;21.30;99.90;;;;;;5029861;28;20072;-72
2023/03/26 10:20:26;;;;;;;1999.90;999.90;;;21.30;99.90;;;;;;5004564;28;20544;-72
2023/03/26 10:23:17;;;;;;;1999.90;999.90;;;21.30;99.90;;;;;;5008229;28;20109;-72
2023/03/26 10:26:23;;;;;;;1999.90;999.90;;;21.30;99.90;;;;;;5015411;28;20120;-71
2023/03/26 10:29:22;;;;;;;1999.90;999.90;;;21.20;99.90;;;;;;5030913;28;20036;-72
2023/03/26 10:31:56;;;;;;;1999.90;999.90;;;21.20;99.90;;;;;;5026012;28;20053;-72
2023/03/26 10:34:47;;;;;;;1999.90;999.90;;;21.10;99.90;;;;;;5037379;28;20033;-71
2023/03/26 10:37:55;;;;;;;1999.90;999.90;;;21.10;99.90;;;;;;5028038;28;20536;-71
2023/03/26 10:40:47;;;;;;;1999.90;999.90;;;21.00;99.90;;;;;;5033096;28;20444;-68
2023/03/26 10:43:27;;;;;;;1999.90;999.90;;;20.90;99.90;;;;;;5035547;28;20029;-69
2023/03/26 10:46:13;;;;;;;1999.90;999.90;;;20.90;99.90;;;;;;5031548;28;20234;-70
2023/03/26 10:49:02;;;;;;;1999.90;999.90;;;20.80;99.90;;;;;;5034634;28;20029;-71
2023/03/26 10:51:41;;;;;;;1999.90;999.90;;;20.80;99.90;;;;;;5030149;28;20091;-70
2023/03/26 10:54:15;;;;;;;1999.90;999.90;;;20.80;99.90;;;;;;5035423;28;20037;-69
2023/03/26 10:56:49;;;;;;;1999.90;999.90;;;20.80;99.90;;;;;;5034516;28;20033;-70
2023/03/26 10:59:17;;;;;;;1999.90;999.90;;;20.70;99.90;;;;;;5028325;28;20024;-70
2023/03/26 11:02:03;;;;;;;1999.90;999.90;;;20.70;99.90;;;;;;5035542;28;20033;-71
2023/03/26 11:05:00;;;;;;;1999.90;999.90;;;20.70;99.90;;;;;;5028437;28;20038;-71
2023/03/26 11:07:44;;;;;;;1999.90;999.90;;;20.70;99.90;;;;;;5030987;28;20041;-71
2023/03/26 11:10:27;;;;;;;1999.90;999.90;;;20.60;99.90;;;;;;5031396;28;20395;-71
2023/03/26 11:13:06;;;;;;;1999.90;999.90;;;20.60;99.90;;;;;;5026754;28;20029;-71
2023/03/26 11:15:48;;;;;;;1999.90;999.90;;;20.60;99.90;;;;;;5032617;28;20029;-70
2023/03/26 11:18:21;;;;;;;1999.90;999.90;;;20.60;99.90;;;;;;5024644;28;20365;-71
2023/03/26 11:21:04;;;;;;;1999.90;999.90;;;20.60;99.90;;;;;;5031998;28;20123;-70
2023/03/26 11:24:01;;;;;;;1999.90;999.90;;;20.60;99.90;;;;;;5030142;28;20032;-71
2023/03/26 11:26:54;;;;;;;1999.90;999.90;;;20.60;99.90;;;;;;5023760;28;20579;-70
2023/03/26 11:30:03;;;;;;;1999.90;999.90;;;20.60;99.90;;;;;;5017545;28;20052;-70
2023/03/26 11:32:47;;;;;;;1999.90;999.90;;;20.70;99.90;;;;;;5037021;28;20404;-71
2023/03/26 11:35:37;;;;;;;1999.90;999.90;;;20.70;99.90;;;;;;5031528;28;20021;-69
2023/03/26 11:38:13;;;;;;;1999.90;999.90;;;20.80;99.90;;;;;;5024328;28;20033;-69
2023/03/26 11:40:49;;;;;;;1999.90;999.90;;;20.80;99.90;;;;;;5030127;28;20025;-70
2023/03/26 11:43:21;;;;;;;1999.90;999.90;;;20.80;99.90;;;;;;5029245;28;20430;-70
2023/03/26 11:45:52;;;;;;;1999.90;999.90;;;20.70;99.90;;;;;;5025966;28;20049;-71
2023/03/26 11:48:36;;;;;;;1999.90;999.90;;;20.70;99.90;;;;;;5030648;28;20036;-70
2023/03/26 11:51:36;;;;;;;1999.90;999.90;;;20.70;99.90;;;;;;5027072;28;20500;-70
2023/03/26 11:54:06;;;;;;;1999.90;999.90;;;20.70;99.90;;;;;;5032097;28;20041;-70
2023/03/26 11:56:43;;;;;;;1999.90;999.90;;;20.80;99.90;;;;;;5033484;28;20091;-69
2023/03/26 11:59:34;;;;;;;1999.90;999.90;;;20.80;99.90;;;;;;5031609;28;20025;-70
2023/03/26 12:02:04;;;;;;;1999.90;999.90;;;20.80;99.90;;;;;;5027637;28;20515;-70
2023/03/26 12:04:40;;;;;;;1999.90;999.90;;;20.90;99.90;;;;;;5027214;28;21746;-70
2023/03/26 12:07:21;;;;;;;1999.90;999.90;;;21.00;99.90;;;;;;5031288;28;20139;-71
2023/03/26 12:09:52;;;;;;;1999.90;999.90;;;21.00;99.90;;;;;;5034340;28;20048;-70
2023/03/26 12:12:24;;;;;;;1999.90;999.90;;;21.10;99.90;;;;;;5034012;28;20030;-70
2023/03/26 12:14:52;;;;;;;1999.90;999.90;;;21.10;99.90;;;;;;5037062;28;20034;-70
2023/03/26 12:17:41;;;;;;;1999.90;999.90;;;21.10;99.90;;;;;;5033467;28;20435;-70
2023/03/26 12:20:31;;;;;;;1999.90;999.90;;;21.10;99.90;;;;;;5034560;28;20033;-69
2023/03/26 12:23:01;;;;;;;1999.90;999.90;;;21.00;99.90;;;;;;5030618;28;20071;-69
2023/03/26 12:25:32;;;;;;;1999.90;999.90;;;20.90;99.90;;;;;;5038432;28;20539;-70
2023/03/26 12:28:03;;;;;;;1999.90;999.90;;;20.90;99.90;;;;;;5030950;28;20056;-69
2023/03/26 12:30:40;;;;;;;1999.90;999.90;;;20.80;99.90;;;;;;5036247;28;20052;-70
2023/03/26 12:33:24;;;;;;;1999.90;999.90;;;20.80;99.90;;;;;;5035447;28;20036;-69
2023/03/26 12:35:53;;;;;;;1999.90;999.90;;;20.80;99.90;;;;;;5025308;28;20043;-67
2023/03/26 12:38:22;;;;;;;1999.90;999.90;;;20.80;99.90;;;;;;5029333;28;20075;-68
2023/03/26 12:41:03;;;;;;;1999.90;999.90;;;20.80;99.90;;;;;;5031283;28;20061;-69